createdAt,value
2019-03-20T00:03:28.930Z,25.60
2019-03-20T00:08:23.265Z,25.80
2019-03-20T00:13:17.330Z,27.67
2019-03-20T00:18:11.303Z,27.33
2019-03-20T00:23:05.260Z,28.03
2019-03-20T00:27:59.225Z,21.37
2019-03-20T00:32:53.257Z,28.87
2019-03-20T00:37:47.222Z,25.37
2019-03-20T00:42:41.422Z,27.33
2019-03-20T00:47:35.375Z,25.43
2019-03-20T00:52:29.436Z,25.03
2019-03-20T00:57:23.407Z,27.03
2019-03-20T01:02:17.480Z,25.27
2019-03-20T01:07:11.551Z,29.40
2019-03-20T01:12:05.552Z,27.37
2019-03-20T01:16:59.510Z,22.27
2019-03-20T01:21:53.573Z,20.73
2019-03-20T01:26:47.533Z,24.90
2019-03-20T01:31:41.638Z,23.70
2019-03-20T01:36:35.744Z,23.87
2019-03-20T01:41:37.584Z,28.47
2019-03-20T01:46:25.653Z,28.63
2019-03-20T01:51:20.518Z,25.50
2019-03-20T01:56:14.486Z,27.97
2019-03-20T02:01:08.544Z,27.80
2019-03-20T02:06:02.632Z,21.53
2019-03-20T02:10:56.589Z,29.00
2019-03-20T02:15:50.559Z,25.53
2019-03-20T02:20:44.668Z,27.40
2019-03-20T02:25:38.718Z,25.43
2019-03-20T02:30:32.709Z,27.53
2019-03-20T02:35:26.769Z,30.87
2019-03-20T02:40:20.707Z,26.20
2019-03-20T02:45:15.582Z,24.00
2019-03-20T02:50:10.763Z,23.27
2019-03-20T02:55:07.008Z,28.63
2019-03-20T03:00:01.565Z,22.23
2019-03-20T03:04:56.555Z,23.80
2019-03-20T03:09:50.556Z,23.43
2019-03-20T03:14:44.680Z,22.30
2019-03-20T03:19:38.653Z,25.77
2019-03-20T03:24:32.632Z,22.30
2019-03-20T03:29:26.577Z,21.63
2019-03-20T03:34:20.612Z,26.40
2019-03-20T03:39:14.588Z,25.20
2019-03-20T03:44:08.551Z,28.73
2019-03-20T03:49:02.709Z,22.00
2019-03-20T03:53:56.670Z,23.07
2019-03-20T03:58:50.621Z,25.23
2019-03-20T04:03:44.624Z,29.30
2019-03-20T04:08:39.077Z,23.63
2019-03-20T04:13:33.025Z,26.73
2019-03-20T04:18:27.000Z,20.40
2019-03-20T04:23:20.968Z,28.93
2019-03-20T04:28:15.019Z,25.70
2019-03-20T04:33:08.962Z,22.83
2019-03-20T04:38:02.936Z,23.73
2019-03-20T04:42:56.886Z,28.20
2019-03-20T04:47:50.928Z,25.00
2019-03-20T04:52:44.976Z,22.10
2019-03-20T04:57:39.119Z,24.97
2019-03-20T05:02:33.088Z,22.77
2019-03-20T05:07:27.034Z,20.10
2019-03-20T05:12:20.985Z,22.13
2019-03-20T05:17:14.948Z,27.30
2019-03-20T05:22:08.912Z,24.87
2019-03-20T05:27:03.167Z,25.10
2019-03-20T05:31:57.169Z,22.90
2019-03-20T05:36:51.149Z,25.40
2019-03-20T05:41:45.142Z,24.60
2019-03-20T05:46:39.112Z,20.13
2019-03-20T05:51:33.200Z,32.10
2019-03-20T05:56:27.215Z,21.00
2019-03-20T06:01:21.203Z,22.43
2019-03-20T06:06:15.160Z,25.53
2019-03-20T06:11:09.201Z,21.47
2019-03-20T06:16:03.166Z,21.20
2019-03-20T06:20:57.169Z,20.90
2019-03-20T06:25:51.655Z,19.93
2019-03-20T06:30:45.783Z,21.07
2019-03-20T06:35:39.789Z,22.57
2019-03-20T06:40:33.765Z,21.73
2019-03-20T06:45:27.775Z,16.37
2019-03-20T06:50:22.147Z,19.67
2019-03-20T06:55:16.092Z,28.50
2019-03-20T07:00:36.764Z,19.53
2019-03-20T07:05:51.347Z,22.23
2019-03-20T07:10:54.495Z,23.37
2019-03-20T07:15:50.393Z,17.93
2019-03-20T07:20:44.371Z,19.47
2019-03-20T07:25:38.504Z,18.80
2019-03-20T07:30:32.463Z,16.43
2019-03-20T07:35:26.447Z,19.90
2019-03-20T07:40:20.427Z,19.23
2019-03-20T07:45:14.427Z,21.77
2019-03-20T07:50:09.289Z,18.63
2019-03-20T07:55:03.655Z,17.60
2019-03-20T07:59:57.620Z,19.80
2019-03-20T08:04:51.880Z,19.07
2019-03-20T08:09:45.832Z,23.03
2019-03-20T08:14:39.819Z,19.53
2019-03-20T08:19:35.729Z,19.47
2019-03-20T08:24:29.768Z,19.27
2019-03-20T08:29:23.773Z,20.80
2019-03-20T08:34:17.758Z,17.10
2019-03-20T08:39:11.736Z,17.83
2019-03-20T08:44:05.705Z,20.90
2019-03-20T08:48:59.667Z,20.37
2019-03-20T08:53:56.183Z,21.43
2019-03-20T08:58:49.547Z,14.73
2019-03-20T09:03:43.504Z,16.63
2019-03-20T09:08:37.486Z,20.00
2019-03-20T09:13:33.382Z,17.97
2019-03-20T09:18:27.467Z,18.93
2019-03-20T09:23:21.443Z,14.90
2019-03-20T09:28:15.419Z,17.70
2019-03-20T09:33:09.459Z,22.80
2019-03-20T09:38:03.519Z,18.17
2019-03-20T09:42:57.510Z,19.60
2019-03-20T09:47:51.492Z,19.67
2019-03-20T09:52:45.570Z,20.43
2019-03-20T09:57:39.747Z,17.55
2019-03-20T10:02:33.698Z,16.07
2019-03-20T10:07:27.787Z,15.63
2019-03-20T10:12:21.984Z,17.17
2019-03-20T10:17:17.328Z,19.50
2019-03-20T10:22:11.487Z,17.50
2019-03-20T10:27:05.596Z,21.27
2019-03-20T10:31:59.585Z,17.82
2019-03-20T10:36:53.672Z,18.48
2019-03-20T10:41:47.665Z,16.95
2019-03-20T10:46:41.834Z,14.25
2019-03-20T10:51:35.818Z,16.55
2019-03-20T10:56:29.793Z,17.48
2019-03-20T11:01:23.777Z,14.70
2019-03-20T11:06:17.952Z,13.05
2019-03-20T11:11:11.916Z,13.90
2019-03-20T11:16:05.861Z,9.43
2019-03-20T11:20:59.973Z,14.75
2019-03-20T11:25:54.005Z,12.37
2019-03-20T11:30:47.993Z,11.97
2019-03-20T11:35:42.594Z,11.12
2019-03-20T11:40:37.800Z,13.43
2019-03-20T11:45:31.977Z,9.88
2019-03-20T11:50:37.147Z,9.90
2019-03-20T11:55:31.130Z,10.68
2019-03-20T12:00:25.601Z,10.55
2019-03-20T12:05:19.792Z,10.08
2019-03-20T12:10:23.417Z,10.93
2019-03-20T12:15:17.647Z,9.75
2019-03-20T12:20:17.216Z,13.53
2019-03-20T12:25:17.108Z,12.15
2019-03-20T12:30:14.006Z,10.70
2019-03-20T12:35:10.929Z,10.58
2019-03-20T12:40:14.527Z,10.82
2019-03-20T12:45:12.249Z,13.38
2019-03-20T12:50:10.239Z,8.98
2019-03-20T12:55:07.760Z,7.50
2019-03-20T13:00:05.579Z,12.68
2019-03-20T13:04:59.780Z,8.43
2019-03-20T13:09:56.166Z,7.80
2019-03-20T13:14:49.665Z,7.97
2019-03-20T13:19:43.862Z,10.98
2019-03-20T13:24:37.838Z,11.40
2019-03-20T13:29:31.824Z,10.72
2019-03-20T13:34:25.837Z,11.43
2019-03-20T13:39:19.836Z,6.25
2019-03-20T13:44:13.806Z,10.60
2019-03-20T13:49:07.785Z,8.45
2019-03-20T13:54:01.820Z,9.40
2019-03-20T13:58:55.797Z,10.25
2019-03-20T14:03:49.894Z,11.48
2019-03-20T14:08:43.868Z,6.85
2019-03-20T14:13:37.847Z,8.00
2019-03-20T14:18:31.845Z,6.37
2019-03-20T14:23:26.007Z,6.33
2019-03-20T14:28:20.165Z,6.70
2019-03-20T14:33:14.214Z,8.35
2019-03-20T14:38:08.199Z,6.55
2019-03-20T14:43:02.337Z,5.83
2019-03-20T14:47:56.541Z,9.90
2019-03-20T14:52:50.734Z,7.37
2019-03-20T14:57:44.819Z,6.57
2019-03-20T15:02:38.920Z,10.08
2019-03-20T15:07:32.890Z,4.78
2019-03-20T15:12:26.989Z,4.67
2019-03-20T15:17:20.980Z,5.28
2019-03-20T15:22:15.046Z,5.25
2019-03-20T15:27:09.021Z,6.35
2019-03-20T15:32:03.454Z,4.72
2019-03-20T15:36:57.466Z,6.17
2019-03-20T15:41:51.454Z,5.08
2019-03-20T15:46:45.441Z,7.12
2019-03-20T15:51:39.436Z,6.85
2019-03-20T15:56:33.401Z,8.25
2019-03-20T16:01:27.432Z,24.18
2019-03-20T16:06:21.642Z,7.40
2019-03-20T16:11:15.725Z,5.50
2019-03-20T16:16:09.843Z,5.85
2019-03-20T16:21:03.847Z,7.00
2019-03-20T16:25:57.852Z,7.90
2019-03-20T16:30:51.836Z,10.63
2019-03-20T16:35:45.846Z,7.67
2019-03-20T16:40:39.828Z,5.35
2019-03-20T16:45:36.123Z,9.50
2019-03-20T16:50:30.093Z,7.22
2019-03-20T16:55:24.207Z,5.53
2019-03-20T17:00:20.210Z,4.57
2019-03-20T17:05:14.469Z,6.70
2019-03-20T17:10:15.217Z,7.33
2019-03-20T17:15:12.993Z,4.60
2019-03-20T17:20:07.276Z,4.03
2019-03-20T17:25:01.393Z,4.80
2019-03-20T17:29:55.358Z,7.87
2019-03-20T17:34:49.429Z,9.47
2019-03-20T17:39:43.428Z,11.10
2019-03-20T17:44:37.405Z,8.53
2019-03-20T17:49:31.369Z,8.87
2019-03-20T17:54:25.459Z,11.63
2019-03-20T17:59:19.496Z,9.87
2019-03-20T18:04:13.973Z,11.00
2019-03-20T18:09:08.170Z,9.37
2019-03-20T18:14:02.201Z,8.97
2019-03-20T18:18:56.297Z,11.97
2019-03-20T18:23:50.604Z,12.07
2019-03-20T18:28:44.728Z,7.67
2019-03-20T18:33:38.804Z,10.27
2019-03-20T18:38:32.951Z,9.60
2019-03-20T18:43:26.953Z,11.47
2019-03-20T18:48:20.990Z,10.57
2019-03-20T18:53:15.090Z,8.10
2019-03-20T18:58:09.284Z,12.47
2019-03-20T19:03:19.017Z,14.60
2019-03-20T19:08:13.185Z,15.43
2019-03-20T19:13:07.496Z,13.97
2019-03-20T19:18:01.634Z,27.50
2019-03-20T19:22:55.943Z,22.70
2019-03-20T19:27:49.987Z,20.63
2019-03-20T19:32:43.990Z,15.47
2019-03-20T19:37:38.262Z,18.83
2019-03-20T19:42:32.249Z,22.70
2019-03-20T19:47:26.451Z,18.90
2019-03-20T19:52:20.830Z,18.80
2019-03-20T19:57:15.109Z,19.13
2019-03-20T20:02:09.468Z,20.27
2019-03-20T20:07:03.571Z,15.97
2019-03-20T20:11:57.664Z,20.90
2019-03-20T20:16:51.745Z,23.57
2019-03-20T20:21:45.857Z,21.23
2019-03-20T20:26:40.010Z,19.50
2019-03-20T20:31:34.130Z,21.50
2019-03-20T20:36:28.241Z,22.97
2019-03-20T20:41:22.491Z,19.20
2019-03-20T20:46:16.589Z,23.10
2019-03-20T20:51:10.576Z,20.53
2019-03-20T20:56:04.592Z,22.43
2019-03-20T21:00:59.006Z,21.07
2019-03-20T21:05:53.024Z,16.50
2019-03-20T21:10:47.043Z,21.60
2019-03-20T21:15:43.431Z,21.40
2019-03-20T21:20:37.436Z,23.13
2019-03-20T21:25:31.412Z,20.83
2019-03-20T21:30:38.205Z,21.03
2019-03-20T21:36:08.533Z,21.57
2019-03-20T21:41:09.062Z,20.77
2019-03-20T21:46:33.087Z,16.80
2019-03-20T21:51:27.281Z,19.27
2019-03-20T21:56:31.136Z,27.07
2019-03-20T22:01:46.826Z,25.73
2019-03-20T22:07:06.594Z,23.40
2019-03-20T22:12:16.689Z,21.80
2019-03-20T22:17:26.470Z,17.90
2019-03-20T22:22:33.195Z,19.97
2019-03-20T22:27:36.903Z,18.93
2019-03-20T22:33:07.921Z,18.47
2019-03-20T22:38:05.429Z,17.43
2019-03-20T22:43:29.470Z,19.57
2019-03-20T22:48:38.024Z,22.50
2019-03-20T22:53:41.625Z,16.53
2019-03-20T22:58:42.159Z,17.67
2019-03-20T23:04:00.054Z,19.10
2019-03-20T23:08:54.021Z,17.33
2019-03-20T23:13:48.714Z,17.67
2019-03-20T23:18:42.686Z,15.67
2019-03-20T23:23:37.487Z,18.53
2019-03-20T23:28:31.459Z,18.93
2019-03-20T23:33:25.459Z,17.50
2019-03-20T23:38:19.438Z,21.17
2019-03-20T23:43:13.409Z,22.17
2019-03-20T23:48:19.600Z,18.97
2019-03-20T23:53:13.522Z,16.87
2019-03-20T23:58:07.490Z,22.97
